Time;durP1;ratioP1;P1;durP2;ratioP2;P2;SDS_P1;SDS_P2;PMS_P1;PMS_P2;Temp;Humidity;BMP_temperature;BMP_pressure;BME280_temperature;BME280_humidity;BME280_pressure;Samples;Min_cycle;Max_cycle;Signal;HPM_P1;HPM_P2
2023/03/02 00:01:32;;;;;;;0.20;0.20;;;;;;;10.21;47.98;99762.84;5036600;28;20496;-65
2023/03/02 00:04:04;;;;;;;0.20;0.20;;;;;;;10.27;48.25;99777.28;5036661;28;20033;-65
2023/03/02 00:06:31;;;;;;;0.22;0.22;;;;;;;10.32;47.17;99765.84;5037084;28;20045;-65
2023/03/02 00:09:01;;;;;;;0.20;0.20;;;;;;;10.42;45.70;99773.56;5036617;28;20032;-65
2023/03/02 00:11:31;;;;;;;0.20;0.20;;;;;;;10.41;46.21;99771.16;5054381;28;20033;-65
2023/03/02 00:13:59;;;;;;;0.20;0.20;;;;;;;10.45;46.44;99770.06;5036184;28;20025;-65
2023/03/02 00:16:24;;;;;;;0.20;0.20;;;;;;;10.45;47.26;99772.84;5036443;28;20028;-65
2023/03/02 00:18:50;;;;;;;0.20;0.20;;;;;;;10.48;47.17;99772.06;5036687;28;20082;-65
2023/03/02 00:21:16;;;;;;;0.20;0.20;;;;;;;10.45;48.06;99767.28;5036350;28;20066;-66
2023/03/02 00:23:44;;;;;;;0.20;0.20;;;;;;;10.45;48.37;99772.03;5036272;28;20059;-66
2023/03/02 00:26:10;;;;;;;0.20;0.20;;;;;;;10.43;48.74;99772.38;5036756;28;20033;-65
2023/03/02 00:28:35;;;;;;;0.20;0.20;;;;;;;10.39;48.45;99768.75;5036248;28;20091;-65
2023/03/02 00:31:07;;;;;;;0.20;0.20;;;;;;;10.35;48.93;99758.75;5054389;28;20028;-65
2023/03/02 00:33:33;;;;;;;0.20;0.20;;;;;;;10.42;49.58;99756.88;5036032;28;20025;-65
2023/03/02 00:35:59;;;;;;;0.20;0.20;;;;;;;10.36;50.00;99765.91;5036080;28;20133;-65
2023/03/02 00:38:26;;;;;;;0.20;0.20;;;;;;;10.37;50.26;99764.72;5036035;28;20025;-65
2023/03/02 00:40:52;;;;;;;0.20;0.20;;;;;;;10.39;50.62;99762.41;5053825;28;20032;-65
2023/03/02 00:43:17;;;;;;;0.20;0.20;;;;;;;10.34;51.29;99766.28;5036241;28;20344;-65
2023/03/02 00:45:43;;;;;;;0.20;0.20;;;;;;;10.30;51.51;99770.97;5035997;28;20032;-65
2023/03/02 00:48:08;;;;;;;0.20;0.20;;;;;;;10.31;51.80;99764.25;5035676;28;20028;-65
2023/03/02 00:50:39;;;;;;;0.20;0.20;;;;;;;10.23;52.08;99773.63;5038468;28;20032;-67
2023/03/02 00:53:07;;;;;;;0.20;0.20;;;;;;;10.41;50.51;99777.53;5038453;28;20025;-65
2023/03/02 00:55:33;;;;;;;0.20;0.20;;;;;;;10.42;50.29;99773.56;5056123;28;20107;-66
2023/03/02 00:57:59;;;;;;;0.20;0.20;;;;;;;10.56;52.26;99783.34;5039429;28;20542;-65
2023/03/02 01:00:27;;;;;;;0.20;0.20;;;;;;;10.54;52.63;99786.47;5037938;28;20025;-65
2023/03/02 01:02:53;;;;;;;0.20;0.20;;;;;;;10.46;53.38;99766.09;5035814;28;20090;-65
2023/03/02 01:05:19;;;;;;;0.20;0.20;;;;;;;10.53;53.79;99775.72;5035783;28;20021;-65
2023/03/02 01:07:44;;;;;;;0.30;0.30;;;;;;;10.46;54.61;99771.66;5036108;28;20029;-65
2023/03/02 01:10:11;;;;;;;0.20;0.20;;;;;;;10.38;56.24;99767.13;5035712;28;20448;-65
2023/03/02 01:12:36;;;;;;;0.20;0.20;;;;;;;10.34;56.88;99757.94;5035930;28;20383;-65
2023/03/02 01:15:02;;;;;;;0.20;0.20;;;;;;;10.21;58.25;99753.69;5035735;28;20082;-65
2023/03/02 01:17:28;;;;;;;0.20;0.20;;;;;;;10.18;58.14;99748.91;5035673;28;20025;-65
2023/03/02 01:19:54;;;;;;;0.20;0.20;;;;;;;10.14;59.31;99748.81;5036505;28;20033;-65
2023/03/02 01:22:20;;;;;;;0.20;0.20;;;;;;;10.01;59.95;99757.69;5036008;28;20072;-65
2023/03/02 01:24:46;;;;;;;0.20;0.20;;;;;;;10.07;60.27;99740.38;5035819;28;20033;-65
2023/03/02 01:27:11;;;;;;;0.20;0.20;;;;;;;9.88;61.23;99735.66;5035502;28;20540;-65
2023/03/02 01:29:37;;;;;;;0.20;0.20;;;;;;;9.82;61.83;99737.13;5036044;28;20029;-65
2023/03/02 01:32:03;;;;;;;0.20;0.20;;;;;;;9.83;61.90;99735.16;5035791;28;20538;-65
2023/03/02 01:34:28;;;;;;;0.30;0.30;;;;;;;9.78;61.68;99729.91;5036015;28;20471;-65
2023/03/02 01:36:54;;;;;;;0.20;0.20;;;;;;;9.50;62.31;99735.72;5035705;28;20037;-65
2023/03/02 01:39:21;;;;;;;0.20;0.20;;;;;;;9.38;62.27;99704.16;5035478;28;20032;-65
2023/03/02 01:41:51;;;;;;;0.20;0.20;;;;;;;9.44;62.03;99713.00;5035732;28;20052;-65
2023/03/02 01:44:34;;;;;;;0.20;0.20;;;;;;;9.37;62.10;99691.41;5035770;28;20033;-65
2023/03/02 01:47:04;;;;;;;0.20;0.20;;;;;;;9.51;62.05;99701.22;5035647;28;20395;-65
2023/03/02 01:49:38;;;;;;;0.20;0.20;;;;;;;9.56;62.55;99695.38;5035829;28;20363;-65
2023/03/02 01:52:04;;;;;;;0.20;0.20;;;;;;;9.58;62.11;99704.13;5035528;28;20379;-65
2023/03/02 01:54:29;;;;;;;0.30;0.30;;;;;;;9.63;61.19;99701.03;5038713;28;20040;-65
2023/03/02 01:57:00;;;;;;;0.20;0.20;;;;;;;9.62;61.79;99685.56;5038906;28;20139;-65
2023/03/02 01:59:27;;;;;;;0.20;0.20;;;;;;;9.64;61.66;99688.75;5039207;28;20025;-65
2023/03/02 02:01:57;;;;;;;0.20;0.20;;;;;;;9.54;61.89;99692.16;5039170;28;20033;-65
2023/03/02 02:04:25;;;;;;;0.20;0.20;;;;;;;9.59;62.26;99691.88;5039463;28;20025;-65
2023/03/02 02:06:59;;;;;;;0.20;0.20;;;;;;;9.59;62.45;99694.63;5039123;28;20044;-65
2023/03/02 02:09:27;;;;;;;0.20;0.20;;;;;;;9.59;62.60;99680.75;5039672;28;20036;-65
2023/03/02 02:11:52;;;;;;;0.30;0.30;;;;;;;9.58;62.20;99682.69;5039046;28;20375;-65
2023/03/02 02:14:18;;;;;;;0.20;0.20;;;;;;;9.54;63.44;99683.81;5039522;28;20029;-64
2023/03/02 02:16:44;;;;;;;0.20;0.20;;;;;;;9.55;63.34;99697.34;5038882;28;20031;-65
2023/03/02 02:19:26;;;;;;;0.30;0.30;;;;;;;9.52;63.22;99702.81;5038715;28;20479;-65
2023/03/02 02:21:52;;;;;;;0.30;0.30;;;;;;;9.56;63.74;99695.38;5038666;28;20029;-65
2023/03/02 02:24:31;;;;;;;0.20;0.20;;;;;;;9.59;64.29;99687.09;5039023;28;20059;-65
2023/03/02 02:27:00;;;;;;;0.20;0.20;;;;;;;9.56;65.05;99693.38;5039182;28;20039;-65
2023/03/02 02:29:25;;;;;;;0.20;0.20;;;;;;;9.58;66.40;99690.22;5056624;28;20036;-65
2023/03/02 02:32:00;;;;;;;0.20;0.20;;;;;;;9.53;67.39;99693.31;5038976;28;20033;-65
2023/03/02 02:34:38;;;;;;;0.20;0.20;;;;;;;9.55;68.34;99691.78;5038983;28;20025;-65
2023/03/02 02:37:12;;;;;;;0.20;0.20;;;;;;;9.49;69.67;99682.16;5038311;28;20113;-65
2023/03/02 02:39:42;;;;;;;0.30;0.30;;;;;;;9.29;71.93;99700.00;5038266;28;20036;-65
2023/03/02 02:42:17;;;;;;;0.30;0.30;;;;;;;9.23;72.23;99691.16;5038165;28;20025;-65
2023/03/02 02:44:43;;;;;;;0.20;0.20;;;;;;;9.14;73.87;99698.88;5056715;28;20135;-65
2023/03/02 02:47:18;;;;;;;0.30;0.30;;;;;;;9.10;73.33;99692.47;5038779;28;20471;-65
2023/03/02 02:49:46;;;;;;;0.20;0.20;;;;;;;9.09;74.94;99693.63;5038730;28;20486;-65
2023/03/02 02:52:23;;;;;;;0.20;0.20;;;;;;;9.11;74.55;99694.88;5038159;28;20460;-65
2023/03/02 02:54:53;;;;;;;0.20;0.20;;;;;;;9.10;75.16;99714.66;5056146;28;20070;-65
2023/03/02 02:57:20;;;;;;;0.20;0.20;;;;;;;9.10;74.78;99711.88;5037502;28;20056;-65
2023/03/02 02:59:52;;;;;;;0.20;0.20;;;;;;;9.02;75.94;99697.06;5055717;28;20031;-65
2023/03/02 03:02:27;;;;;;;0.20;0.20;;;;;;;9.04;76.77;99693.91;5037979;28;20025;-65
2023/03/02 03:05:02;;;;;;;0.20;0.20;;;;;;;8.87;78.98;99690.41;5055628;28;20022;-65
2023/03/02 03:07:28;;;;;;;0.20;0.20;;;;;;;8.82;79.73;99682.38;5037749;28;20033;-65
2023/03/02 03:10:18;;;;;;;0.20;0.20;;;;;;;8.62;79.91;99641.91;5037742;28;20025;-65
2023/03/02 03:12:45;;;;;;;0.20;0.20;;;;;;;8.78;80.99;99677.91;5037736;28;20178;-65
2023/03/02 03:15:12;;;;;;;0.20;0.20;;;;;;;8.71;81.62;99670.22;5037562;28;20021;-65
2023/03/02 03:17:38;;;;;;;0.30;0.30;;;;;;;8.69;82.23;99669.81;5037547;28;20119;-65
2023/03/02 03:20:09;;;;;;;0.20;0.20;;;;;;;8.70;82.84;99679.72;5038114;28;20167;-65
2023/03/02 03:22:37;;;;;;;0.20;0.20;;;;;;;8.63;85.03;99682.34;5037518;28;20025;-65
2023/03/02 03:25:03;;;;;;;0.30;0.30;;;;;;;8.64;85.06;99692.28;5038021;28;20372;-65
2023/03/02 03:27:29;;;;;;;0.30;0.30;;;;;;;8.62;86.23;99689.03;5055290;28;20032;-65
2023/03/02 03:29:54;;;;;;;0.20;0.20;;;;;;;8.64;86.41;99683.94;5037852;28;20032;-65
2023/03/02 03:32:20;;;;;;;0.20;0.20;;;;;;;8.53;88.50;99696.78;5037183;28;20114;-65
2023/03/02 03:34:46;;;;;;;0.20;0.20;;;;;;;8.56;88.85;99705.16;5036923;28;20067;-65
2023/03/02 03:37:15;;;;;;;0.30;0.30;;;;;;;8.58;88.69;99708.38;5037180;28;20039;-65
2023/03/02 03:39:41;;;;;;;0.20;0.20;;;;;;;8.53;89.95;99708.66;5037615;28;20023;-66
2023/03/02 03:42:08;;;;;;;0.20;0.20;;;;;;;8.52;89.99;99706.22;5037660;28;20438;-66
2023/03/02 03:44:34;;;;;;;0.20;0.20;;;;;;;8.49;90.16;99701.44;5055174;28;20372;-66
2023/03/02 03:47:02;;;;;;;0.20;0.20;;;;;;;8.45;89.40;99701.31;5037314;28;20058;-65
2023/03/02 03:49:28;;;;;;;0.20;0.20;;;;;;;8.54;88.38;99698.38;5037189;28;20029;-65
2023/03/02 03:51:54;;;;;;;0.20;0.20;;;;;;;8.50;88.55;99697.47;5036801;28;20025;-65
2023/03/02 03:54:22;;;;;;;0.20;0.20;;;;;;;8.52;88.88;99700.69;5037224;28;20079;-65
2023/03/02 03:56:49;;;;;;;0.30;0.30;;;;;;;8.50;90.44;99697.47;5036502;28;20132;-65
2023/03/02 03:59:20;;;;;;;0.20;0.20;;;;;;;8.43;91.79;99708.41;5036830;28;20029;-65
2023/03/02 04:02:09;;;;;;;0.20;0.20;;;;;;;8.40;93.27;99694.09;5037417;28;20036;-65
2023/03/02 04:04:35;;;;;;;0.20;0.20;;;;;;;8.33;94.52;99693.91;5026330;28;20087;-65
2023/03/02 04:07:00;;;;;;;0.30;0.30;;;;;;;8.28;94.87;99690.59;5036994;28;20418;-65
2023/03/02 04:09:26;;;;;;;0.30;0.30;;;;;;;8.38;95.77;99707.53;5036528;28;20475;-65
2023/03/02 04:11:57;;;;;;;0.30;0.30;;;;;;;8.33;96.44;99705.00;5036702;28;20060;-65
2023/03/02 04:14:23;;;;;;;0.20;0.20;;;;;;;8.21;96.96;99702.31;5036837;28;20375;-65
2023/03/02 04:16:52;;;;;;;0.20;0.20;;;;;;;8.38;96.86;99699.19;5036118;28;20399;-66
2023/03/02 04:19:17;;;;;;;0.30;0.30;;;;;;;8.24;97.62;99696.03;5036779;28;20032;-65
2023/03/02 04:21:47;;;;;;;0.20;0.20;;;;;;;8.16;97.42;99705.38;5036343;28;20033;-65
2023/03/02 04:24:17;;;;;;;0.20;0.20;;;;;;;8.14;98.66;99694.63;5036582;28;20028;-66
2023/03/02 04:26:44;;;;;;;0.30;0.30;;;;;;;8.16;99.21;99697.06;5036806;28;20533;-65
2023/03/02 04:29:10;;;;;;;0.20;0.20;;;;;;;8.27;98.39;99698.13;5036488;28;20017;-66
2023/03/02 04:31:36;;;;;;;0.20;0.20;;;;;;;8.22;98.87;99697.59;5036659;28;20094;-66
2023/03/02 04:34:05;;;;;;;0.20;0.20;;;;;;;8.05;99.51;99659.97;5035944;28;20434;-67
2023/03/02 04:36:33;;;;;;;0.20;0.20;;;;;;;8.35;99.47;99702.66;5036422;28;20082;-66
2023/03/02 04:38:58;;;;;;;0.20;0.20;;;;;;;8.36;99.10;99704.31;5036095;28;20467;-66
2023/03/02 04:41:24;;;;;;;0.20;0.20;;;;;;;8.36;99.92;99709.84;5035845;28;20040;-66
2023/03/02 04:43:51;;;;;;;0.30;0.30;;;;;;;8.48;99.05;99699.81;5036073;28;20032;-66
2023/03/02 04:46:23;;;;;;;0.28;0.28;;;;;;;8.35;99.21;99718.47;5036281;28;20032;-66
2023/03/02 04:48:52;;;;;;;0.20;0.20;;;;;;;8.35;99.38;99724.03;5036507;28;20039;-66
2023/03/02 04:51:22;;;;;;;0.20;0.20;;;;;;;8.44;99.38;99721.09;5035970;28;20032;-66
2023/03/02 04:54:02;;;;;;;0.30;0.30;;;;;;;8.36;99.67;99726.50;5054059;28;20033;-66
2023/03/02 04:56:28;;;;;;;0.20;0.20;;;;;;;8.25;100.00;99728.13;5036222;28;20395;-66
2023/03/02 04:58:54;;;;;;;0.20;0.20;;;;;;;8.24;100.00;99740.38;5036106;28;20037;-66
2023/03/02 05:01:20;;;;;;;0.30;0.30;;;;;;;8.24;100.00;99726.53;5035986;28;20476;-66
2023/03/02 05:03:46;;;;;;;0.20;0.20;;;;;;;8.24;100.00;99734.03;5036368;28;20414;-66
2023/03/02 05:06:11;;;;;;;0.30;0.30;;;;;;;8.22;100.00;99731.66;5035625;28;20025;-65
2023/03/02 05:08:37;;;;;;;0.20;0.20;;;;;;;8.28;100.00;99724.66;5036001;28;20081;-65
2023/03/02 05:11:05;;;;;;;0.20;0.20;;;;;;;8.22;100.00;99726.09;5036002;28;20124;-65
2023/03/02 05:13:30;;;;;;;0.20;0.20;;;;;;;8.28;100.00;99730.19;5053468;28;20414;-65
2023/03/02 05:15:59;;;;;;;0.20;0.20;;;;;;;8.18;100.00;99725.19;5035905;28;20037;-65
2023/03/02 05:18:26;;;;;;;0.30;0.30;;;;;;;8.17;100.00;99728.34;5036335;28;20115;-66
2023/03/02 05:20:52;;;;;;;0.20;0.20;;;;;;;8.22;100.00;99731.66;5035984;28;20028;-65
2023/03/02 05:23:25;;;;;;;0.20;0.20;;;;;;;8.25;100.00;99735.66;5036190;28;20028;-65
2023/03/02 05:25:55;;;;;;;0.28;0.28;;;;;;;8.22;100.00;99734.41;5035769;28;20053;-65
2023/03/02 05:28:22;;;;;;;0.20;0.20;;;;;;;8.20;100.00;99727.59;5039484;28;20035;-66
2023/03/02 05:30:49;;;;;;;0.20;0.20;;;;;;;8.23;100.00;99724.13;5057332;28;20395;-66
2023/03/02 05:33:15;;;;;;;0.20;0.20;;;;;;;8.26;100.00;99729.78;5057440;28;20064;-66
2023/03/02 05:35:40;;;;;;;0.20;0.20;;;;;;;8.23;100.00;99721.34;5039437;28;20459;-65
2023/03/02 05:38:06;;;;;;;0.30;0.30;;;;;;;8.19;100.00;99735.13;5039370;28;20060;-65
2023/03/02 05:40:32;;;;;;;0.20;0.20;;;;;;;8.18;100.00;99735.47;5040051;28;20029;-65
2023/03/02 05:43:00;;;;;;;0.20;0.20;;;;;;;8.14;100.00;99735.38;5039381;28;20052;-65
2023/03/02 05:45:28;;;;;;;0.20;0.20;;;;;;;8.18;100.00;99727.97;5039201;28;20115;-66
2023/03/02 05:47:54;;;;;;;0.20;0.20;;;;;;;8.13;100.00;99722.69;5056852;28;20022;-66
2023/03/02 05:50:20;;;;;;;0.22;0.22;;;;;;;8.22;100.00;99723.31;5039501;28;20041;-65
2023/03/02 05:52:46;;;;;;;0.20;0.20;;;;;;;8.07;100.00;99724.94;5039989;28;20421;-66
2023/03/02 05:55:14;;;;;;;0.30;0.30;;;;;;;8.21;100.00;99718.94;5040387;28;20033;-66
2023/03/02 05:57:39;;;;;;;0.30;0.30;;;;;;;8.10;100.00;99723.44;5039153;28;20049;-65
2023/03/02 06:00:10;;;;;;;0.20;0.20;;;;;;;8.18;100.00;99719.66;5039035;28;20383;-65
2023/03/02 06:02:38;;;;;;;0.20;0.20;;;;;;;8.28;100.00;99716.34;5039515;28;20082;-65
2023/03/02 06:05:15;;;;;;;0.30;0.30;;;;;;;8.16;100.00;99732.28;5057110;28;20021;-65
2023/03/02 06:07:44;;;;;;;0.30;0.30;;;;;;;8.00;100.00;99732.28;5039401;28;20041;-65
2023/03/02 06:10:11;;;;;;;0.20;0.20;;;;;;;8.00;100.00;99712.88;5039116;28;20052;-65
2023/03/02 06:12:38;;;;;;;0.30;0.30;;;;;;;8.04;100.00;99727.59;5056829;28;20071;-65
2023/03/02 06:15:05;;;;;;;0.30;0.30;;;;;;;7.87;100.00;99682.47;5038703;28;20029;-65
2023/03/02 06:17:31;;;;;;;0.30;0.30;;;;;;;8.08;100.00;99714.66;5038629;28;20029;-65
2023/03/02 06:19:57;;;;;;;0.30;0.30;;;;;;;8.06;100.00;99725.28;5039170;28;20021;-65
2023/03/02 06:25:18;;;;;;;0.20;0.20;;;;;;;8.16;100.00;99748.91;5057031;28;20040;-65
2023/03/02 06:27:45;;;;;;;0.30;0.30;;;;;;;8.17;100.00;99747.75;5039038;28;20371;-66
2023/03/02 06:30:17;;;;;;;0.30;0.30;;;;;;;8.15;100.00;99753.66;5038673;28;20033;-66
2023/03/02 06:32:42;;;;;;;0.30;0.30;;;;;;;8.11;100.00;99761.06;5038223;28;20032;-66
2023/03/02 06:35:09;;;;;;;0.30;0.30;;;;;;;8.13;100.00;99773.38;5038649;28;20021;-66
2023/03/02 06:37:35;;;;;;;0.30;0.30;;;;;;;8.27;100.00;99775.72;5038319;28;20034;-65
2023/03/02 06:40:02;;;;;;;0.30;0.30;;;;;;;8.46;100.00;99779.75;5037736;28;20037;-65
2023/03/02 06:42:27;;;;;;;0.30;0.30;;;;;;;8.36;100.00;99779.16;5038481;28;20029;-65
2023/03/02 06:44:53;;;;;;;0.30;0.30;;;;;;;8.37;100.00;99783.53;5038399;28;20032;-66
2023/03/02 06:47:20;;;;;;;0.28;0.28;;;;;;;8.29;100.00;99790.00;5056316;28;20029;-66
2023/03/02 06:49:48;;;;;;;0.30;0.30;;;;;;;8.31;100.00;99796.03;5038367;28;20372;-66
2023/03/02 06:52:14;;;;;;;0.20;0.20;;;;;;;8.22;100.00;99791.81;5038196;28;20055;-65
2023/03/02 06:54:40;;;;;;;0.30;0.30;;;;;;;8.28;100.00;99801.47;5038018;28;20072;-65
2023/03/02 06:57:06;;;;;;;0.20;0.20;;;;;;;8.08;100.00;99797.78;5037542;28;20053;-65
2023/03/02 06:59:34;;;;;;;0.20;0.20;;;;;;;8.00;100.00;99796.00;5038148;28;20061;-65
2023/03/02 07:01:59;;;;;;;0.30;0.30;;;;;;;8.05;100.00;99806.81;5037857;28;20029;-65
2023/03/02 07:04:27;;;;;;;0.30;0.30;;;;;;;7.87;100.00;99784.94;5038123;28;20029;-65
2023/03/02 07:06:55;;;;;;;0.25;0.25;;;;;;;7.96;100.00;99806.16;5037715;28;20036;-65
2023/03/02 07:09:21;;;;;;;0.30;0.30;;;;;;;7.99;100.00;99808.22;5037478;28;20033;-65
2023/03/02 07:11:47;;;;;;;0.20;0.20;;;;;;;7.95;100.00;99810.91;5055789;28;20038;-65
2023/03/02 07:14:16;;;;;;;0.30;0.30;;;;;;;7.99;100.00;99810.97;5037632;28;20028;-64
2023/03/02 07:16:44;;;;;;;0.30;0.30;;;;;;;8.05;100.00;99815.13;5037543;28;20032;-65
2023/03/02 07:19:14;;;;;;;0.20;0.20;;;;;;;8.16;100.00;99819.00;5037556;28;20060;-65
2023/03/02 07:21:40;;;;;;;0.20;0.20;;;;;;;8.16;100.00;99820.94;5037971;28;20398;-64
2023/03/02 07:24:06;;;;;;;0.30;0.30;;;;;;;8.16;100.00;99820.94;5038078;28;20104;-65
2023/03/02 07:26:31;;;;;;;0.20;0.20;;;;;;;8.12;100.00;99831.94;5038699;28;20040;-66
2023/03/02 07:28:59;;;;;;;0.20;0.20;;;;;;;8.11;100.00;99824.78;5038316;28;20431;-65
2023/03/02 07:31:26;;;;;;;0.30;0.30;;;;;;;8.16;100.00;99832.84;5038235;28;20119;-65
2023/03/02 07:33:51;;;;;;;0.30;0.30;;;;;;;8.19;100.00;99831.31;5038512;28;20025;-65
2023/03/02 07:36:16;;;;;;;0.20;0.20;;;;;;;8.26;100.00;99837.88;5038274;28;20129;-65
2023/03/02 07:38:42;;;;;;;0.22;0.22;;;;;;;8.34;100.00;99839.66;5037214;28;20471;-65
2023/03/02 07:41:08;;;;;;;0.20;0.20;;;;;;;8.37;100.00;99843.72;5037678;28;20032;-65
2023/03/02 07:43:35;;;;;;;0.20;0.20;;;;;;;8.40;100.00;99843.78;5054603;28;20029;-65
2023/03/02 07:46:03;;;;;;;0.20;0.20;;;;;;;8.47;100.00;99843.19;5037038;28;20021;-65
2023/03/02 07:48:31;;;;;;;0.30;0.30;;;;;;;8.58;100.00;99849.00;5054593;28;20060;-65
2023/03/02 07:50:58;;;;;;;0.20;0.20;;;;;;;8.70;100.00;99846.16;5053526;28;20032;-65
2023/03/02 07:53:24;;;;;;;0.30;0.30;;;;;;;8.71;100.00;99846.94;5037318;28;20124;-65
2023/03/02 07:55:49;;;;;;;0.20;0.20;;;;;;;8.69;100.00;99843.75;5036776;28;20076;-65
2023/03/02 07:58:15;;;;;;;0.30;0.30;;;;;;;8.90;100.00;99852.59;5036849;28;20020;-65
2023/03/02 08:00:40;;;;;;;0.20;0.20;;;;;;;8.84;100.00;99840.94;5037336;28;20033;-65
2023/03/02 08:03:06;;;;;;;0.30;0.30;;;;;;;8.87;100.00;99848.53;5036756;28;20056;-65
2023/03/02 08:05:36;;;;;;;0.30;0.30;;;;;;;8.84;100.00;99840.94;5037195;28;20037;-65
2023/03/02 08:08:02;;;;;;;0.20;0.20;;;;;;;8.91;100.00;99845.84;5036721;28;20021;-65
2023/03/02 08:10:28;;;;;;;0.20;0.20;;;;;;;9.05;99.97;99850.94;5036911;28;20537;-65
2023/03/02 08:12:53;;;;;;;0.20;0.20;;;;;;;9.11;98.48;99855.06;5036537;28;20029;-65
2023/03/02 08:15:18;;;;;;;0.30;0.30;;;;;;;9.19;97.69;99851.25;5037087;28;20024;-65
2023/03/02 08:17:44;;;;;;;0.30;0.30;;;;;;;9.28;97.21;99846.31;5036419;28;20055;-65
2023/03/02 08:20:10;;;;;;;0.30;0.30;;;;;;;9.37;97.69;99851.66;5036969;28;20037;-65
2023/03/02 08:22:36;;;;;;;0.30;0.30;;;;;;;9.33;97.33;99851.59;5054241;28;20028;-65
2023/03/02 08:25:06;;;;;;;0.20;0.20;;;;;;;9.37;97.97;99858.00;5036568;28;20029;-65
2023/03/02 08:27:31;;;;;;;0.20;0.20;;;;;;;9.30;95.41;99863.41;5053962;28;20032;-65
2023/03/02 08:29:57;;;;;;;0.20;0.20;;;;;;;9.31;94.94;99862.25;5036977;28;20033;-65
2023/03/02 08:32:22;;;;;;;0.20;0.20;;;;;;;9.55;94.11;99866.75;5037147;28;20029;-65
2023/03/02 08:34:50;;;;;;;0.20;0.20;;;;;;;9.48;94.13;99874.13;5036682;28;20037;-65
2023/03/02 08:37:17;;;;;;;0.30;0.30;;;;;;;9.68;94.90;99861.88;5036289;28;20471;-66
2023/03/02 08:39:42;;;;;;;0.28;0.28;;;;;;;9.93;92.71;99863.19;5036329;28;20029;-65
2023/03/02 08:42:08;;;;;;;0.20;0.20;;;;;;;9.94;93.23;99859.22;5036048;28;20025;-65
2023/03/02 08:44:33;;;;;;;0.20;0.20;;;;;;;9.72;92.06;99873.84;5036654;28;20032;-66
2023/03/02 08:46:59;;;;;;;0.30;0.30;;;;;;;9.69;93.09;99867.06;5036386;28;20489;-66
2023/03/02 08:49:24;;;;;;;0.30;0.30;;;;;;;9.67;93.41;99866.63;5036022;28;20034;-65
2023/03/02 08:51:52;;;;;;;0.20;0.20;;;;;;;9.61;94.47;99872.84;5035823;28;20036;-65
2023/03/02 08:54:21;;;;;;;0.30;0.30;;;;;;;9.71;94.40;99883.38;5035834;28;20498;-65
2023/03/02 08:56:47;;;;;;;0.20;0.20;;;;;;;9.81;94.78;99877.25;5053547;28;20098;-65
2023/03/02 08:59:13;;;;;;;0.20;0.20;;;;;;;9.90;92.93;99883.38;5035836;28;20542;-65
2023/03/02 09:01:40;;;;;;;0.20;0.20;;;;;;;9.94;91.99;99881.47;5035445;28;20067;-65
2023/03/02 09:04:10;;;;;;;0.30;0.30;;;;;;;10.08;91.29;99888.50;5035776;28;20029;-65
2023/03/02 09:06:39;;;;;;;0.20;0.20;;;;;;;10.12;90.00;99881.84;5036267;28;20037;-65
2023/03/02 09:09:05;;;;;;;0.20;0.20;;;;;;;10.09;91.13;99887.31;5036238;28;20030;-65
2023/03/02 09:11:31;;;;;;;0.20;0.20;;;;;;;10.06;91.26;99888.84;5036000;28;20037;-65
2023/03/02 09:13:56;;;;;;;0.20;0.20;;;;;;;10.15;90.90;99883.06;5035335;28;20087;-65
2023/03/02 09:16:24;;;;;;;0.20;0.20;;;;;;;10.16;89.13;99882.69;5053528;28;20056;-65
2023/03/02 09:18:50;;;;;;;0.30;0.30;;;;;;;10.32;89.91;99877.06;5036172;28;20083;-65
2023/03/02 09:21:16;;;;;;;0.20;0.20;;;;;;;10.24;88.21;99880.91;5036190;28;20087;-65
2023/03/02 09:23:41;;;;;;;0.20;0.20;;;;;;;10.13;87.61;99849.28;5036152;28;20033;-65
2023/03/02 09:26:07;;;;;;;0.20;0.20;;;;;;;10.46;85.99;99882.91;5053145;28;20067;-65
2023/03/02 09:28:35;;;;;;;0.20;0.20;;;;;;;10.61;84.79;99883.19;5035998;28;20467;-65
2023/03/02 09:31:03;;;;;;;0.20;0.20;;;;;;;10.70;85.01;99865.03;5035830;28;20040;-69
2023/03/02 09:33:33;;;;;;;0.30;0.30;;;;;;;10.90;83.16;99871.34;5053271;28;20395;-66
2023/03/02 09:36:00;;;;;;;0.22;0.22;;;;;;;11.35;83.74;99880.81;5053088;28;20028;-65
2023/03/02 09:38:28;;;;;;;0.30;0.30;;;;;;;11.57;80.05;99876.34;5035747;28;20029;-66
2023/03/02 09:41:15;;;;;;;0.20;0.20;;;;;;;11.59;79.20;99870.38;5035418;28;20025;-65
2023/03/02 09:44:01;;;;;;;0.20;0.20;;;;;;;12.02;77.15;99875.34;5035465;28;20040;-65
2023/03/02 09:46:26;;;;;;;0.28;0.28;;;;;;;12.12;73.99;99842.41;5035409;28;20076;-65
2023/03/02 09:48:57;;;;;;;0.20;0.20;;;;;;;12.75;71.83;99889.69;5036176;28;20058;-65
2023/03/02 09:51:42;;;;;;;0.20;0.20;;;;;;;12.28;73.33;99898.75;5035348;28;20479;-65
2023/03/02 09:54:23;;;;;;;0.20;0.20;;;;;;;11.81;74.70;99889.00;5053187;28;20033;-65
2023/03/02 09:56:56;;;;;;;0.20;0.20;;;;;;;12.03;73.22;99890.91;5035321;28;20052;-65
2023/03/02 09:59:40;;;;;;;0.30;0.30;;;;;;;11.62;73.66;99878.00;5035272;28;20061;-65
2023/03/02 10:02:16;;;;;;;;;;;;;;;12.13;74.24;99911.72;5035975;28;20036;-65
2023/03/02 10:04:49;;;;;;;0.20;0.20;;;;;;;11.76;73.56;99911.63;5036014;28;19909;-65
2023/03/02 10:07:18;;;;;;;0.20;0.20;;;;;;;11.76;75.42;99903.25;5035072;28;20485;-65
2023/03/02 10:09:44;;;;;;;0.20;0.20;;;;;;;11.80;75.53;99907.72;5035419;28;20025;-65
2023/03/02 10:12:47;;;;;;;0.20;0.20;;;;;;;11.82;74.42;99904.56;5035483;28;20094;-65
2023/03/02 10:15:27;;;;;;;0.20;0.20;;;;;;;12.20;73.56;99908.25;5038303;28;20056;-64
2023/03/02 10:18:12;;;;;;;0.20;0.20;;;;;;;12.31;71.47;99914.75;5038941;28;20024;-65
2023/03/02 10:20:54;;;;;;;0.20;0.20;;;;;;;12.64;71.68;99911.13;5038767;28;20475;-65
2023/03/02 10:23:25;;;;;;;0.20;0.20;;;;;;;12.56;72.60;99913.00;5038860;28;20395;-65
2023/03/02 10:25:57;;;;;;;0.20;0.20;;;;;;;12.12;72.37;99917.69;5038616;28;20471;-65
2023/03/02 10:28:35;;;;;;;0.20;0.20;;;;;;;12.27;72.31;99916.69;5038787;28;20471;-64
2023/03/02 10:31:27;;;;;;;0.20;0.20;;;;;;;12.23;71.32;99911.06;5038414;28;20032;-64
2023/03/02 10:33:53;;;;;;;0.20;0.20;;;;;;;12.14;71.93;99915.31;5038845;28;20341;-65
2023/03/02 10:36:34;;;;;;;0.20;0.20;;;;;;;12.03;74.89;99902.06;5038215;28;20116;-65
2023/03/02 10:38:59;;;;;;;0.20;0.20;;;;;;;11.86;76.62;99910.19;5038569;28;20572;-65
2023/03/02 10:41:38;;;;;;;0.20;0.20;;;;;;;12.03;74.16;99910.41;5038587;28;20033;-65
2023/03/02 10:44:21;;;;;;;0.25;0.25;;;;;;;11.84;74.68;99907.78;5038510;28;20029;-65
2023/03/02 10:46:47;;;;;;;0.30;0.30;;;;;;;11.89;74.85;99920.59;5038245;28;20029;-65
2023/03/02 10:49:41;;;;;;;0.30;0.30;;;;;;;11.77;75.84;99918.78;5038879;28;20282;-65
2023/03/02 10:52:16;;;;;;;0.28;0.28;;;;;;;11.73;76.11;99923.53;5035293;28;20040;-65
2023/03/02 10:54:41;;;;;;;0.20;0.20;;;;;;;11.65;76.62;99908.69;5038279;28;20133;-65
2023/03/02 10:57:41;;;;;;;0.20;0.20;;;;;;;11.55;77.76;99912.91;5037914;28;20479;-65
2023/03/02 11:00:15;;;;;;;0.30;0.30;;;;;;;11.38;78.11;99912.66;5038135;28;20028;-65
2023/03/02 11:02:48;;;;;;;0.20;0.20;;;;;;;11.51;78.46;99906.53;5038709;28;20040;-65
2023/03/02 11:05:16;;;;;;;0.23;0.23;;;;;;;11.85;78.41;99909.41;5038433;28;20190;-65
2023/03/02 11:07:54;;;;;;;0.20;0.20;;;;;;;11.66;77.77;99915.06;5037777;28;20025;-65
2023/03/02 11:10:23;;;;;;;0.20;0.20;;;;;;;11.71;78.53;99900.81;5038012;28;20036;-65
2023/03/02 11:12:50;;;;;;;0.20;0.20;;;;;;;11.84;78.37;99901.41;5055513;28;20025;-65
2023/03/02 11:15:31;;;;;;;0.30;0.30;;;;;;;11.78;78.80;99901.72;5037667;28;20080;-65
2023/03/02 11:18:03;;;;;;;0.20;0.20;;;;;;;11.93;79.55;99899.97;5037635;28;20025;-65
2023/03/02 11:20:33;;;;;;;0.20;0.20;;;;;;;11.88;77.34;99897.50;5037470;28;20116;-66
2023/03/02 11:23:52;;;;;;;0.20;0.20;;;;;;;11.87;78.29;99895.88;5056223;28;20036;-66
2023/03/02 11:26:23;;;;;;;0.20;0.20;;;;;;;11.81;78.95;99875.06;4958022;28;20093;-65
2023/03/02 11:29:03;;;;;;;0.30;0.30;;;;;;;12.13;78.71;99885.84;5050867;28;20115;-65
2023/03/02 11:31:38;;;;;;;0.20;0.20;;;;;;;12.10;78.46;99898.56;5037660;28;20094;-65
2023/03/02 11:34:23;;;;;;;0.20;0.20;;;;;;;11.88;75.38;99891.94;5037297;28;20119;-64
2023/03/02 11:36:58;;;;;;;0.20;0.20;;;;;;;11.91;77.48;99896.72;5037300;28;20025;-65
2023/03/02 11:39:38;;;;;;;0.20;0.20;;;;;;;11.91;80.02;99899.50;5037238;28;20029;-64
2023/03/02 11:42:14;;;;;;;0.22;0.22;;;;;;;11.89;79.08;99898.31;5037386;28;20119;-64
2023/03/02 11:44:40;;;;;;;0.20;0.20;;;;;;;11.77;79.52;99893.72;5037640;28;20036;-64
2023/03/02 11:47:13;;;;;;;0.20;0.20;;;;;;;11.51;79.29;99895.38;5037107;28;20031;-64
2023/03/02 11:49:54;;;;;;;0.20;0.20;;;;;;;11.40;79.78;99886.06;5039790;28;20106;-66